Grangeville, Louisiana
Current Conditions -  °F | °C
As of 10:15 AM on Wednesday 22 Oct 2014 (Local Time) from KHDC Reporting Station
Clear Clear  
Wind Chill: 72°   Ceiling: Unl
Heat Index: 72°   Visibility: 10mi
Dew Point: 50°   Wind: 9mph
Humidity: 46%   Direction: 80°E
Pressure: 30.13"   Gusts: NA
Location:  30.7279°N, 90.6769°W
Report Text: KHDC 221515Z AUTO 08008KT 10SM CLR 22/10 A3013 RMK AO2
Loading
Personal Weather Stations






























Interactive Weather Map
Tropical Storm Tracking
New forecast layout! Learn more

10-Day Weather Forecast

Advertisements
Track Severe Weather on mobile